Аэропорт: Большое Савино. Пермь

ICAO: USPP

METAR:
2023-09-30 00:00:00
USPP 300000Z VRB01MPS 9999 BKN035 10/09 Q1019 R21/290137 NOSIG RMK QFE753
METAR:
2023-09-29 22:56:00
TAF USPP 292256Z 3000/3024 01003G08MPS 6000 BKN013 TEMPO 3000/3005 0300 FG BKN002 BECMG 3005/3006 9999 BKN020 BECMG 3007/3008 09003G12MPS BECMG 3016/3017 15003G10MPS